sensor_id;sensor_type;location;lat;lon;timestamp;P1;durP1;ratioP1;P2;durP2;ratioP2
35839;SDS011;35514;50.504;30.500;2023-06-10T00:00:07;10.52;;;6.03;;
35839;SDS011;35514;50.504;30.500;2023-06-10T00:02:38;17.40;;;6.65;;
35839;SDS011;35514;50.504;30.500;2023-06-10T00:05:07;11.77;;;5.70;;
35839;SDS011;35514;50.504;30.500;2023-06-10T00:07:36;16.98;;;5.60;;
35839;SDS011;35514;50.504;30.500;2023-06-10T00:10:05;13.38;;;6.28;;
35839;SDS011;35514;50.504;30.500;2023-06-10T00:12:33;14.73;;;6.32;;
35839;SDS011;35514;50.504;30.500;2023-06-10T00:15:05;11.65;;;6.50;;
35839;SDS011;35514;50.504;30.500;2023-06-10T00:17:33;9.85;;;5.65;;
35839;SDS011;35514;50.504;30.500;2023-06-10T00:20:06;13.63;;;6.30;;
35839;SDS011;35514;50.504;30.500;2023-06-10T00:22:35;9.93;;;6.05;;
35839;SDS011;35514;50.504;30.500;2023-06-10T00:25:04;9.60;;;5.28;;
35839;SDS011;35514;50.504;30.500;2023-06-10T00:27:32;7.90;;;5.32;;
35839;SDS011;35514;50.504;30.500;2023-06-10T00:30:02;10.93;;;6.10;;
35839;SDS011;35514;50.504;30.500;2023-06-10T00:32:34;10.88;;;7.00;;
35839;SDS011;35514;50.504;30.500;2023-06-10T00:35:03;10.52;;;6.05;;
35839;SDS011;35514;50.504;30.500;2023-06-10T00:37:32;9.85;;;6.20;;
35839;SDS011;35514;50.504;30.500;2023-06-10T00:40:02;9.95;;;6.45;;
35839;SDS011;35514;50.504;30.500;2023-06-10T00:42:29;11.38;;;6.00;;
35839;SDS011;35514;50.504;30.500;2023-06-10T00:44:57;10.55;;;6.80;;
35839;SDS011;35514;50.504;30.500;2023-06-10T00:47:25;13.85;;;6.28;;
35839;SDS011;35514;50.504;30.500;2023-06-10T00:49:55;11.20;;;6.75;;
35839;SDS011;35514;50.504;30.500;2023-06-10T00:52:22;14.05;;;6.93;;
35839;SDS011;35514;50.504;30.500;2023-06-10T00:54:52;11.43;;;6.22;;
35839;SDS011;35514;50.504;30.500;2023-06-10T00:57:20;8.50;;;6.07;;
35839;SDS011;35514;50.504;30.500;2023-06-10T00:59:48;9.88;;;6.18;;
35839;SDS011;35514;50.504;30.500;2023-06-10T01:02:16;10.55;;;6.13;;
35839;SDS011;35514;50.504;30.500;2023-06-10T01:04:44;11.82;;;6.55;;
35839;SDS011;35514;50.504;30.500;2023-06-10T01:07:14;13.20;;;6.75;;
35839;SDS011;35514;50.504;30.500;2023-06-10T01:09:45;13.68;;;7.72;;
35839;SDS011;35514;50.504;30.500;2023-06-10T01:12:18;10.40;;;6.40;;
35839;SDS011;35514;50.504;30.500;2023-06-10T01:14:46;12.55;;;6.95;;
35839;SDS011;35514;50.504;30.500;2023-06-10T01:17:15;14.10;;;7.03;;
35839;SDS011;35514;50.504;30.500;2023-06-10T01:19:44;16.70;;;8.35;;
35839;SDS011;35514;50.504;30.500;2023-06-10T01:22:23;10.57;;;6.57;;
35839;SDS011;35514;50.504;30.500;2023-06-10T01:24:52;10.98;;;7.07;;
35839;SDS011;35514;50.504;30.500;2023-06-10T01:27:21;11.57;;;7.10;;
35839;SDS011;35514;50.504;30.500;2023-06-10T01:29:51;11.35;;;6.90;;
35839;SDS011;35514;50.504;30.500;2023-06-10T01:32:23;11.43;;;6.78;;
35839;SDS011;35514;50.504;30.500;2023-06-10T01:34:54;10.63;;;6.35;;
35839;SDS011;35514;50.504;30.500;2023-06-10T01:37:23;14.75;;;7.82;;
35839;SDS011;35514;50.504;30.500;2023-06-10T01:39:52;13.60;;;7.72;;
35839;SDS011;35514;50.504;30.500;2023-06-10T01:42:22;11.60;;;7.05;;
35839;SDS011;35514;50.504;30.500;2023-06-10T01:44:50;10.23;;;6.88;;
35839;SDS011;35514;50.504;30.500;2023-06-10T01:47:18;12.70;;;6.82;;
35839;SDS011;35514;50.504;30.500;2023-06-10T01:49:46;12.95;;;6.53;;
35839;SDS011;35514;50.504;30.500;2023-06-10T01:52:14;9.07;;;6.78;;
35839;SDS011;35514;50.504;30.500;2023-06-10T01:54:43;10.93;;;6.90;;
35839;SDS011;35514;50.504;30.500;2023-06-10T01:57:11;14.00;;;6.95;;
35839;SDS011;35514;50.504;30.500;2023-06-10T01:59:39;18.20;;;7.07;;
35839;SDS011;35514;50.504;30.500;2023-06-10T02:02:10;11.70;;;6.82;;
35839;SDS011;35514;50.504;30.500;2023-06-10T02:04:38;13.18;;;7.00;;
35839;SDS011;35514;50.504;30.500;2023-06-10T02:07:06;9.43;;;6.82;;
35839;SDS011;35514;50.504;30.500;2023-06-10T02:09:34;15.00;;;8.93;;
35839;SDS011;35514;50.504;30.500;2023-06-10T02:12:05;18.42;;;8.65;;
35839;SDS011;35514;50.504;30.500;2023-06-10T02:14:33;19.95;;;9.48;;
35839;SDS011;35514;50.504;30.500;2023-06-10T02:17:01;13.77;;;7.88;;
35839;SDS011;35514;50.504;30.500;2023-06-10T02:19:29;15.07;;;7.35;;
35839;SDS011;35514;50.504;30.500;2023-06-10T02:21:57;11.07;;;6.85;;
35839;SDS011;35514;50.504;30.500;2023-06-10T02:24:24;15.75;;;7.10;;
35839;SDS011;35514;50.504;30.500;2023-06-10T02:26:53;15.82;;;7.60;;
35839;SDS011;35514;50.504;30.500;2023-06-10T02:29:23;12.23;;;7.43;;
35839;SDS011;35514;50.504;30.500;2023-06-10T02:31:51;11.68;;;7.22;;
35839;SDS011;35514;50.504;30.500;2023-06-10T02:34:19;10.88;;;7.07;;
35839;SDS011;35514;50.504;30.500;2023-06-10T02:36:47;13.55;;;7.72;;
35839;SDS011;35514;50.504;30.500;2023-06-10T02:39:17;15.25;;;8.20;;
35839;SDS011;35514;50.504;30.500;2023-06-10T02:41:45;10.60;;;7.22;;
35839;SDS011;35514;50.504;30.500;2023-06-10T02:44:13;19.30;;;8.10;;
35839;SDS011;35514;50.504;30.500;2023-06-10T02:46:42;11.18;;;7.57;;
35839;SDS011;35514;50.504;30.500;2023-06-10T02:49:10;15.38;;;7.80;;
35839;SDS011;35514;50.504;30.500;2023-06-10T02:51:38;14.02;;;9.35;;
35839;SDS011;35514;50.504;30.500;2023-06-10T02:54:06;13.68;;;8.05;;
35839;SDS011;35514;50.504;30.500;2023-06-10T02:56:34;10.32;;;7.30;;
35839;SDS011;35514;50.504;30.500;2023-06-10T02:59:02;11.55;;;7.45;;
35839;SDS011;35514;50.504;30.500;2023-06-10T03:01:30;13.82;;;7.18;;
35839;SDS011;35514;50.504;30.500;2023-06-10T03:04:00;14.15;;;7.43;;
35839;SDS011;35514;50.504;30.500;2023-06-10T03:06:28;13.10;;;7.43;;
35839;SDS011;35514;50.504;30.500;2023-06-10T03:08:56;13.60;;;7.68;;
35839;SDS011;35514;50.504;30.500;2023-06-10T03:11:24;12.27;;;6.65;;
35839;SDS011;35514;50.504;30.500;2023-06-10T03:13:52;10.43;;;7.20;;
35839;SDS011;35514;50.504;30.500;2023-06-10T03:16:21;12.65;;;6.72;;
35839;SDS011;35514;50.504;30.500;2023-06-10T03:18:51;10.57;;;6.72;;
35839;SDS011;35514;50.504;30.500;2023-06-10T03:21:20;10.48;;;6.20;;
35839;SDS011;35514;50.504;30.500;2023-06-10T03:23:48;10.60;;;5.97;;
35839;SDS011;35514;50.504;30.500;2023-06-10T03:26:16;9.48;;;6.65;;
35839;SDS011;35514;50.504;30.500;2023-06-10T03:28:48;7.72;;;5.82;;
35839;SDS011;35514;50.504;30.500;2023-06-10T03:31:15;7.85;;;5.28;;
35839;SDS011;35514;50.504;30.500;2023-06-10T03:33:44;8.05;;;5.05;;
35839;SDS011;35514;50.504;30.500;2023-06-10T03:36:12;7.60;;;5.15;;
35839;SDS011;35514;50.504;30.500;2023-06-10T03:38:41;10.82;;;5.03;;
35839;SDS011;35514;50.504;30.500;2023-06-10T03:41:08;8.23;;;6.07;;
35839;SDS011;35514;50.504;30.500;2023-06-10T03:43:37;11.27;;;5.10;;
35839;SDS011;35514;50.504;30.500;2023-06-10T03:46:05;9.65;;;5.18;;
35839;SDS011;35514;50.504;30.500;2023-06-10T03:48:33;12.48;;;5.13;;
35839;SDS011;35514;50.504;30.500;2023-06-10T03:51:00;8.00;;;5.18;;
35839;SDS011;35514;50.504;30.500;2023-06-10T03:53:28;10.13;;;5.10;;
35839;SDS011;35514;50.504;30.500;2023-06-10T03:55:58;10.93;;;5.15;;
35839;SDS011;35514;50.504;30.500;2023-06-10T03:58:26;8.20;;;5.28;;
35839;SDS011;35514;50.504;30.500;2023-06-10T04:00:54;9.73;;;5.25;;
35839;SDS011;35514;50.504;30.500;2023-06-10T04:03:21;8.38;;;5.60;;
35839;SDS011;35514;50.504;30.500;2023-06-10T04:05:50;7.13;;;5.07;;
35839;SDS011;35514;50.504;30.500;2023-06-10T04:08:18;13.02;;;6.45;;
35839;SDS011;35514;50.504;30.500;2023-06-10T04:10:48;7.60;;;4.85;;
35839;SDS011;35514;50.504;30.500;2023-06-10T04:13:17;11.38;;;5.63;;
35839;SDS011;35514;50.504;30.500;2023-06-10T04:15:46;10.07;;;5.57;;
35839;SDS011;35514;50.504;30.500;2023-06-10T04:18:14;6.82;;;5.18;;
35839;SDS011;35514;50.504;30.500;2023-06-10T04:20:43;9.75;;;5.35;;
35839;SDS011;35514;50.504;30.500;2023-06-10T04:23:13;11.32;;;5.28;;
35839;SDS011;35514;50.504;30.500;2023-06-10T04:25:41;9.30;;;5.30;;
35839;SDS011;35514;50.504;30.500;2023-06-10T04:28:09;9.70;;;5.82;;
35839;SDS011;35514;50.504;30.500;2023-06-10T04:30:38;11.88;;;5.72;;
35839;SDS011;35514;50.504;30.500;2023-06-10T04:33:06;9.48;;;5.15;;
35839;SDS011;35514;50.504;30.500;2023-06-10T04:35:35;8.00;;;4.85;;
35839;SDS011;35514;50.504;30.500;2023-06-10T04:38:03;12.13;;;5.57;;
35839;SDS011;35514;50.504;30.500;2023-06-10T04:40:31;7.85;;;5.35;;
35839;SDS011;35514;50.504;30.500;2023-06-10T04:42:59;9.13;;;4.55;;
35839;SDS011;35514;50.504;30.500;2023-06-10T04:45:27;8.70;;;5.47;;
35839;SDS011;35514;50.504;30.500;2023-06-10T04:47:57;14.80;;;5.53;;
35839;SDS011;35514;50.504;30.500;2023-06-10T04:50:25;10.93;;;5.40;;
35839;SDS011;35514;50.504;30.500;2023-06-10T04:52:53;7.57;;;5.13;;
35839;SDS011;35514;50.504;30.500;2023-06-10T04:55:23;9.60;;;5.18;;
35839;SDS011;35514;50.504;30.500;2023-06-10T04:57:51;8.90;;;5.93;;
35839;SDS011;35514;50.504;30.500;2023-06-10T05:00:22;11.98;;;5.35;;
35839;SDS011;35514;50.504;30.500;2023-06-10T05:02:50;10.90;;;5.20;;
35839;SDS011;35514;50.504;30.500;2023-06-10T05:05:19;6.38;;;4.55;;
35839;SDS011;35514;50.504;30.500;2023-06-10T05:07:47;9.02;;;4.82;;
35839;SDS011;35514;50.504;30.500;2023-06-10T05:10:15;7.47;;;4.63;;
35839;SDS011;35514;50.504;30.500;2023-06-10T05:12:42;11.95;;;5.22;;
35839;SDS011;35514;50.504;30.500;2023-06-10T05:15:10;10.00;;;4.90;;
35839;SDS011;35514;50.504;30.500;2023-06-10T05:17:38;7.72;;;5.15;;
35839;SDS011;35514;50.504;30.500;2023-06-10T05:20:06;10.70;;;4.88;;
35839;SDS011;35514;50.504;30.500;2023-06-10T05:22:36;15.30;;;5.15;;
35839;SDS011;35514;50.504;30.500;2023-06-10T05:25:04;9.27;;;5.55;;
35839;SDS011;35514;50.504;30.500;2023-06-10T05:27:32;16.58;;;5.10;;
35839;SDS011;35514;50.504;30.500;2023-06-10T05:30:00;8.23;;;4.68;;
35839;SDS011;35514;50.504;30.500;2023-06-10T05:32:28;7.85;;;5.80;;
35839;SDS011;35514;50.504;30.500;2023-06-10T05:34:57;10.18;;;4.45;;
35839;SDS011;35514;50.504;30.500;2023-06-10T05:37:26;12.45;;;5.38;;
35839;SDS011;35514;50.504;30.500;2023-06-10T05:39:55;9.60;;;5.18;;
35839;SDS011;35514;50.504;30.500;2023-06-10T05:42:23;11.00;;;5.32;;
35839;SDS011;35514;50.504;30.500;2023-06-10T05:44:52;10.10;;;5.70;;
35839;SDS011;35514;50.504;30.500;2023-06-10T05:47:19;10.05;;;4.68;;
35839;SDS011;35514;50.504;30.500;2023-06-10T05:49:47;9.40;;;5.30;;
35839;SDS011;35514;50.504;30.500;2023-06-10T05:52:16;7.43;;;5.05;;
35839;SDS011;35514;50.504;30.500;2023-06-10T05:54:44;6.85;;;4.68;;
35839;SDS011;35514;50.504;30.500;2023-06-10T05:57:13;7.57;;;4.60;;
35839;SDS011;35514;50.504;30.500;2023-06-10T05:59:40;7.40;;;4.75;;
35839;SDS011;35514;50.504;30.500;2023-06-10T06:02:09;7.40;;;4.82;;
35839;SDS011;35514;50.504;30.500;2023-06-10T06:04:37;6.30;;;4.22;;
35839;SDS011;35514;50.504;30.500;2023-06-10T06:07:05;6.95;;;4.50;;
35839;SDS011;35514;50.504;30.500;2023-06-10T06:09:33;7.70;;;4.45;;
35839;SDS011;35514;50.504;30.500;2023-06-10T06:12:00;6.22;;;4.30;;
35839;SDS011;35514;50.504;30.500;2023-06-10T06:14:36;7.40;;;4.28;;
35839;SDS011;35514;50.504;30.500;2023-06-10T06:17:05;7.10;;;4.53;;
35839;SDS011;35514;50.504;30.500;2023-06-10T06:19:32;8.52;;;4.50;;
35839;SDS011;35514;50.504;30.500;2023-06-10T06:22:00;9.68;;;3.78;;
35839;SDS011;35514;50.504;30.500;2023-06-10T06:24:28;7.68;;;4.75;;
35839;SDS011;35514;50.504;30.500;2023-06-10T06:26:56;6.82;;;3.78;;
35839;SDS011;35514;50.504;30.500;2023-06-10T06:29:24;6.15;;;4.10;;
35839;SDS011;35514;50.504;30.500;2023-06-10T06:31:58;10.10;;;4.07;;
35839;SDS011;35514;50.504;30.500;2023-06-10T06:34:25;8.20;;;4.13;;
35839;SDS011;35514;50.504;30.500;2023-06-10T06:36:54;7.10;;;3.75;;
35839;SDS011;35514;50.504;30.500;2023-06-10T06:39:22;9.15;;;3.70;;
35839;SDS011;35514;50.504;30.500;2023-06-10T06:41:50;5.22;;;3.97;;
35839;SDS011;35514;50.504;30.500;2023-06-10T06:44:17;4.25;;;2.80;;
35839;SDS011;35514;50.504;30.500;2023-06-10T06:46:45;5.95;;;3.40;;
35839;SDS011;35514;50.504;30.500;2023-06-10T06:49:14;3.80;;;2.78;;
35839;SDS011;35514;50.504;30.500;2023-06-10T06:51:42;5.97;;;3.58;;
35839;SDS011;35514;50.504;30.500;2023-06-10T06:54:10;5.55;;;3.17;;
35839;SDS011;35514;50.504;30.500;2023-06-10T06:56:38;5.50;;;3.13;;
35839;SDS011;35514;50.504;30.500;2023-06-10T06:59:06;5.78;;;2.75;;
35839;SDS011;35514;50.504;30.500;2023-06-10T07:01:34;7.10;;;2.90;;
35839;SDS011;35514;50.504;30.500;2023-06-10T07:04:03;6.78;;;3.35;;
35839;SDS011;35514;50.504;30.500;2023-06-10T07:06:32;6.93;;;3.13;;
35839;SDS011;35514;50.504;30.500;2023-06-10T07:09:04;6.35;;;3.35;;
35839;SDS011;35514;50.504;30.500;2023-06-10T07:11:32;7.70;;;3.88;;
35839;SDS011;35514;50.504;30.500;2023-06-10T07:14:01;5.97;;;3.95;;
35839;SDS011;35514;50.504;30.500;2023-06-10T07:16:29;8.75;;;3.97;;
35839;SDS011;35514;50.504;30.500;2023-06-10T07:19:02;8.13;;;4.68;;
35839;SDS011;35514;50.504;30.500;2023-06-10T07:21:41;9.35;;;4.85;;
35839;SDS011;35514;50.504;30.500;2023-06-10T07:24:10;6.57;;;4.20;;
35839;SDS011;35514;50.504;30.500;2023-06-10T07:26:38;8.20;;;3.92;;
35839;SDS011;35514;50.504;30.500;2023-06-10T07:29:06;6.30;;;3.90;;
35839;SDS011;35514;50.504;30.500;2023-06-10T07:31:35;11.50;;;4.05;;
35839;SDS011;35514;50.504;30.500;2023-06-10T07:34:03;10.52;;;3.45;;
35839;SDS011;35514;50.504;30.500;2023-06-10T07:36:31;7.05;;;3.40;;
35839;SDS011;35514;50.504;30.500;2023-06-10T07:39:01;9.98;;;3.55;;
35839;SDS011;35514;50.504;30.500;2023-06-10T07:41:34;6.18;;;3.38;;
35839;SDS011;35514;50.504;30.500;2023-06-10T07:44:02;6.28;;;3.38;;
35839;SDS011;35514;50.504;30.500;2023-06-10T07:46:34;7.40;;;3.30;;
35839;SDS011;35514;50.504;30.500;2023-06-10T07:49:02;3.90;;;3.08;;
35839;SDS011;35514;50.504;30.500;2023-06-10T07:51:30;4.97;;;3.20;;
35839;SDS011;35514;50.504;30.500;2023-06-10T07:53:59;5.38;;;3.28;;
35839;SDS011;35514;50.504;30.500;2023-06-10T07:56:29;8.52;;;3.50;;
35839;SDS011;35514;50.504;30.500;2023-06-10T07:58:58;5.65;;;3.30;;
35839;SDS011;35514;50.504;30.500;2023-06-10T08:01:25;7.40;;;3.33;;
35839;SDS011;35514;50.504;30.500;2023-06-10T08:03:53;5.13;;;3.40;;
35839;SDS011;35514;50.504;30.500;2023-06-10T08:06:21;7.35;;;3.60;;
35839;SDS011;35514;50.504;30.500;2023-06-10T08:08:49;9.35;;;3.17;;
35839;SDS011;35514;50.504;30.500;2023-06-10T08:11:17;7.60;;;3.30;;
35839;SDS011;35514;50.504;30.500;2023-06-10T08:13:46;4.20;;;3.15;;
35839;SDS011;35514;50.504;30.500;2023-06-10T08:16:14;4.78;;;3.10;;
35839;SDS011;35514;50.504;30.500;2023-06-10T08:18:41;6.75;;;2.70;;
35839;SDS011;35514;50.504;30.500;2023-06-10T08:21:09;7.05;;;3.38;;
35839;SDS011;35514;50.504;30.500;2023-06-10T08:23:37;4.50;;;3.10;;
35839;SDS011;35514;50.504;30.500;2023-06-10T08:26:06;4.70;;;2.80;;
35839;SDS011;35514;50.504;30.500;2023-06-10T08:28:34;5.07;;;3.55;;
35839;SDS011;35514;50.504;30.500;2023-06-10T08:31:03;6.15;;;3.13;;
35839;SDS011;35514;50.504;30.500;2023-06-10T08:33:31;4.60;;;3.58;;
35839;SDS011;35514;50.504;30.500;2023-06-10T08:35:59;5.68;;;3.60;;
35839;SDS011;35514;50.504;30.500;2023-06-10T08:38:26;5.28;;;3.22;;
35839;SDS011;35514;50.504;30.500;2023-06-10T08:40:56;15.48;;;3.80;;
35839;SDS011;35514;50.504;30.500;2023-06-10T08:43:25;7.10;;;3.55;;
35839;SDS011;35514;50.504;30.500;2023-06-10T08:45:56;4.93;;;3.30;;
35839;SDS011;35514;50.504;30.500;2023-06-10T08:48:29;4.80;;;3.30;;
35839;SDS011;35514;50.504;30.500;2023-06-10T08:50:58;5.40;;;2.90;;
35839;SDS011;35514;50.504;30.500;2023-06-10T08:53:26;7.90;;;3.60;;
35839;SDS011;35514;50.504;30.500;2023-06-10T08:55:57;3.85;;;3.08;;
35839;SDS011;35514;50.504;30.500;2023-06-10T08:58:26;5.88;;;3.10;;
35839;SDS011;35514;50.504;30.500;2023-06-10T09:00:54;5.03;;;3.38;;
35839;SDS011;35514;50.504;30.500;2023-06-10T09:03:24;4.70;;;3.17;;
35839;SDS011;35514;50.504;30.500;2023-06-10T09:05:54;5.18;;;3.10;;
35839;SDS011;35514;50.504;30.500;2023-06-10T09:08:23;12.85;;;3.60;;
35839;SDS011;35514;50.504;30.500;2023-06-10T09:10:51;4.43;;;3.00;;
35839;SDS011;35514;50.504;30.500;2023-06-10T09:13:19;5.07;;;2.97;;
35839;SDS011;35514;50.504;30.500;2023-06-10T09:15:47;5.55;;;3.53;;
35839;SDS011;35514;50.504;30.500;2023-06-10T09:18:17;4.35;;;3.13;;
35839;SDS011;35514;50.504;30.500;2023-06-10T09:20:45;5.97;;;2.92;;
35839;SDS011;35514;50.504;30.500;2023-06-10T09:23:14;5.00;;;3.10;;
35839;SDS011;35514;50.504;30.500;2023-06-10T09:25:42;8.38;;;3.53;;
35839;SDS011;35514;50.504;30.500;2023-06-10T09:28:14;4.90;;;3.50;;
35839;SDS011;35514;50.504;30.500;2023-06-10T09:30:42;9.20;;;3.47;;
35839;SDS011;35514;50.504;30.500;2023-06-10T09:33:19;8.18;;;3.67;;
35839;SDS011;35514;50.504;30.500;2023-06-10T09:35:48;6.35;;;3.10;;
35839;SDS011;35514;50.504;30.500;2023-06-10T09:38:20;5.35;;;3.22;;
35839;SDS011;35514;50.504;30.500;2023-06-10T09:40:49;4.68;;;2.75;;
35839;SDS011;35514;50.504;30.500;2023-06-10T09:43:18;4.03;;;2.72;;
35839;SDS011;35514;50.504;30.500;2023-06-10T09:45:47;4.47;;;3.10;;
35839;SDS011;35514;50.504;30.500;2023-06-10T09:48:15;4.80;;;2.67;;
35839;SDS011;35514;50.504;30.500;2023-06-10T09:50:43;9.75;;;3.08;;
35839;SDS011;35514;50.504;30.500;2023-06-10T09:53:11;3.67;;;2.72;;
35839;SDS011;35514;50.504;30.500;2023-06-10T09:55:42;7.93;;;3.22;;
35839;SDS011;35514;50.504;30.500;2023-06-10T09:58:09;5.90;;;2.47;;
35839;SDS011;35514;50.504;30.500;2023-06-10T10:00:37;5.68;;;2.80;;
35839;SDS011;35514;50.504;30.500;2023-06-10T10:03:05;12.10;;;3.35;;
35839;SDS011;35514;50.504;30.500;2023-06-10T10:05:33;6.15;;;2.40;;
35839;SDS011;35514;50.504;30.500;2023-06-10T10:08:02;3.03;;;2.20;;
35839;SDS011;35514;50.504;30.500;2023-06-10T10:10:29;4.75;;;2.75;;
35839;SDS011;35514;50.504;30.500;2023-06-10T10:12:59;8.73;;;2.78;;
35839;SDS011;35514;50.504;30.500;2023-06-10T10:15:29;7.07;;;2.63;;
35839;SDS011;35514;50.504;30.500;2023-06-10T10:18:00;4.63;;;2.90;;
35839;SDS011;35514;50.504;30.500;2023-06-10T10:20:31;6.37;;;2.93;;
35839;SDS011;35514;50.504;30.500;2023-06-10T10:23:02;4.07;;;2.60;;
35839;SDS011;35514;50.504;30.500;2023-06-10T10:25:31;10.90;;;2.40;;
35839;SDS011;35514;50.504;30.500;2023-06-10T10:28:04;3.67;;;2.63;;
35839;SDS011;35514;50.504;30.500;2023-06-10T10:30:34;6.13;;;2.83;;
35839;SDS011;35514;50.504;30.500;2023-06-10T10:33:06;4.20;;;2.70;;
35839;SDS011;35514;50.504;30.500;2023-06-10T10:35:38;4.22;;;2.83;;
35839;SDS011;35514;50.504;30.500;2023-06-10T10:38:07;4.40;;;2.78;;
35839;SDS011;35514;50.504;30.500;2023-06-10T10:40:35;5.55;;;3.22;;
35839;SDS011;35514;50.504;30.500;2023-06-10T10:43:05;6.57;;;3.28;;
35839;SDS011;35514;50.504;30.500;2023-06-10T10:45:33;7.72;;;3.50;;
35839;SDS011;35514;50.504;30.500;2023-06-10T10:48:05;10.45;;;3.47;;
35839;SDS011;35514;50.504;30.500;2023-06-10T10:50:34;14.00;;;4.10;;
35839;SDS011;35514;50.504;30.500;2023-06-10T10:53:03;5.30;;;2.88;;
35839;SDS011;35514;50.504;30.500;2023-06-10T10:55:31;7.15;;;2.80;;
35839;SDS011;35514;50.504;30.500;2023-06-10T10:58:02;6.55;;;3.70;;
35839;SDS011;35514;50.504;30.500;2023-06-10T11:00:33;4.05;;;2.83;;
35839;SDS011;35514;50.504;30.500;2023-06-10T11:03:04;10.00;;;3.38;;
35839;SDS011;35514;50.504;30.500;2023-06-10T11:05:37;6.22;;;2.83;;
35839;SDS011;35514;50.504;30.500;2023-06-10T11:08:05;4.55;;;3.10;;
35839;SDS011;35514;50.504;30.500;2023-06-10T11:10:34;4.43;;;3.13;;
35839;SDS011;35514;50.504;30.500;2023-06-10T11:13:05;8.35;;;3.25;;
35839;SDS011;35514;50.504;30.500;2023-06-10T11:15:39;6.55;;;3.30;;
35839;SDS011;35514;50.504;30.500;2023-06-10T11:18:08;4.65;;;2.88;;
35839;SDS011;35514;50.504;30.500;2023-06-10T11:23:37;4.78;;;3.22;;
35839;SDS011;35514;50.504;30.500;2023-06-10T11:26:19;6.72;;;2.97;;
35839;SDS011;35514;50.504;30.500;2023-06-10T11:29:02;6.13;;;3.30;;
35839;SDS011;35514;50.504;30.500;2023-06-10T11:31:33;4.05;;;3.00;;
35839;SDS011;35514;50.504;30.500;2023-06-10T11:34:06;4.05;;;2.90;;
35839;SDS011;35514;50.504;30.500;2023-06-10T11:36:34;5.30;;;3.08;;
35839;SDS011;35514;50.504;30.500;2023-06-10T11:39:03;7.50;;;3.65;;
35839;SDS011;35514;50.504;30.500;2023-06-10T11:41:32;8.30;;;3.20;;
35839;SDS011;35514;50.504;30.500;2023-06-10T11:44:01;4.25;;;3.20;;
35839;SDS011;35514;50.504;30.500;2023-06-10T11:46:30;4.07;;;2.95;;
35839;SDS011;35514;50.504;30.500;2023-06-10T11:48:58;7.72;;;3.35;;
35839;SDS011;35514;50.504;30.500;2023-06-10T11:51:27;7.80;;;3.40;;
35839;SDS011;35514;50.504;30.500;2023-06-10T11:53:55;8.52;;;3.75;;
35839;SDS011;35514;50.504;30.500;2023-06-10T11:56:23;6.65;;;3.10;;
35839;SDS011;35514;50.504;30.500;2023-06-10T11:58:53;6.40;;;3.20;;
35839;SDS011;35514;50.504;30.500;2023-06-10T12:01:21;4.63;;;3.25;;
35839;SDS011;35514;50.504;30.500;2023-06-10T12:04:00;5.00;;;3.40;;
35839;SDS011;35514;50.504;30.500;2023-06-10T12:06:37;3.38;;;3.08;;
35839;SDS011;35514;50.504;30.500;2023-06-10T12:09:05;6.20;;;3.45;;
35839;SDS011;35514;50.504;30.500;2023-06-10T12:11:50;9.32;;;3.95;;
35839;SDS011;35514;50.504;30.500;2023-06-10T12:17:06;6.93;;;4.10;;
35839;SDS011;35514;50.504;30.500;2023-06-10T12:19:39;5.55;;;4.03;;
35839;SDS011;35514;50.504;30.500;2023-06-10T12:22:07;6.55;;;4.28;;
35839;SDS011;35514;50.504;30.500;2023-06-10T12:24:39;7.25;;;3.80;;
35839;SDS011;35514;50.504;30.500;2023-06-10T12:27:11;8.20;;;4.18;;
35839;SDS011;35514;50.504;30.500;2023-06-10T12:29:38;14.00;;;3.97;;
35839;SDS011;35514;50.504;30.500;2023-06-10T12:32:07;5.95;;;3.83;;
35839;SDS011;35514;50.504;30.500;2023-06-10T12:34:35;10.57;;;4.95;;
35839;SDS011;35514;50.504;30.500;2023-06-10T12:37:07;5.85;;;3.83;;
35839;SDS011;35514;50.504;30.500;2023-06-10T12:39:40;5.97;;;3.58;;
35839;SDS011;35514;50.504;30.500;2023-06-10T12:42:09;8.23;;;3.40;;
35839;SDS011;35514;50.504;30.500;2023-06-10T12:44:39;14.65;;;4.32;;
35839;SDS011;35514;50.504;30.500;2023-06-10T12:47:07;7.55;;;3.35;;
35839;SDS011;35514;50.504;30.500;2023-06-10T12:49:36;10.13;;;3.60;;
35839;SDS011;35514;50.504;30.500;2023-06-10T12:52:06;5.00;;;3.00;;
35839;SDS011;35514;50.504;30.500;2023-06-10T12:54:34;4.18;;;3.22;;
35839;SDS011;35514;50.504;30.500;2023-06-10T12:57:02;4.68;;;3.10;;
35839;SDS011;35514;50.504;30.500;2023-06-10T12:59:30;8.50;;;3.60;;
35839;SDS011;35514;50.504;30.500;2023-06-10T13:01:59;5.03;;;3.95;;
35839;SDS011;35514;50.504;30.500;2023-06-10T13:04:27;5.50;;;3.40;;
35839;SDS011;35514;50.504;30.500;2023-06-10T13:06:55;8.07;;;3.78;;
35839;SDS011;35514;50.504;30.500;2023-06-10T13:09:24;9.00;;;3.47;;
35839;SDS011;35514;50.504;30.500;2023-06-10T13:11:53;9.82;;;3.78;;
35839;SDS011;35514;50.504;30.500;2023-06-10T13:14:20;6.50;;;3.78;;
35839;SDS011;35514;50.504;30.500;2023-06-10T13:16:48;9.35;;;3.60;;
35839;SDS011;35514;50.504;30.500;2023-06-10T13:19:16;6.47;;;3.33;;
35839;SDS011;35514;50.504;30.500;2023-06-10T13:21:44;14.40;;;4.28;;
35839;SDS011;35514;50.504;30.500;2023-06-10T13:24:11;7.35;;;2.83;;
35839;SDS011;35514;50.504;30.500;2023-06-10T13:26:41;8.10;;;2.58;;
35839;SDS011;35514;50.504;30.500;2023-06-10T13:29:08;7.47;;;2.80;;
35839;SDS011;35514;50.504;30.500;2023-06-10T13:31:40;7.45;;;3.00;;
35839;SDS011;35514;50.504;30.500;2023-06-10T13:34:08;5.13;;;2.80;;
35839;SDS011;35514;50.504;30.500;2023-06-10T13:36:36;6.95;;;3.47;;
35839;SDS011;35514;50.504;30.500;2023-06-10T13:39:04;7.10;;;2.95;;
35839;SDS011;35514;50.504;30.500;2023-06-10T13:41:32;11.05;;;2.75;;
35839;SDS011;35514;50.504;30.500;2023-06-10T13:44:01;9.20;;;3.25;;
35839;SDS011;35514;50.504;30.500;2023-06-10T13:46:29;7.85;;;4.10;;
35839;SDS011;35514;50.504;30.500;2023-06-10T13:48:57;12.45;;;4.13;;
35839;SDS011;35514;50.504;30.500;2023-06-10T13:51:25;9.40;;;3.75;;
35839;SDS011;35514;50.504;30.500;2023-06-10T13:53:52;8.00;;;4.00;;
35839;SDS011;35514;50.504;30.500;2023-06-10T13:56:20;11.13;;;4.32;;
35839;SDS011;35514;50.504;30.500;2023-06-10T13:58:48;9.48;;;4.15;;
35839;SDS011;35514;50.504;30.500;2023-06-10T14:01:17;8.77;;;4.60;;
35839;SDS011;35514;50.504;30.500;2023-06-10T14:03:45;8.18;;;4.85;;
35839;SDS011;35514;50.504;30.500;2023-06-10T14:06:13;8.95;;;5.60;;
35839;SDS011;35514;50.504;30.500;2023-06-10T14:08:44;12.80;;;5.00;;
35839;SDS011;35514;50.504;30.500;2023-06-10T14:11:12;9.90;;;5.18;;
35839;SDS011;35514;50.504;30.500;2023-06-10T14:13:40;11.45;;;5.38;;
35839;SDS011;35514;50.504;30.500;2023-06-10T14:16:08;9.40;;;4.90;;
35839;SDS011;35514;50.504;30.500;2023-06-10T14:18:37;8.75;;;4.90;;
35839;SDS011;35514;50.504;30.500;2023-06-10T14:21:05;11.35;;;4.72;;
35839;SDS011;35514;50.504;30.500;2023-06-10T14:23:33;12.45;;;5.30;;
35839;SDS011;35514;50.504;30.500;2023-06-10T14:26:01;10.90;;;4.43;;
35839;SDS011;35514;50.504;30.500;2023-06-10T14:28:29;11.32;;;4.72;;
35839;SDS011;35514;50.504;30.500;2023-06-10T14:30:57;6.45;;;4.20;;
35839;SDS011;35514;50.504;30.500;2023-06-10T14:33:25;8.30;;;4.40;;
35839;SDS011;35514;50.504;30.500;2023-06-10T14:35:54;6.72;;;4.22;;
35839;SDS011;35514;50.504;30.500;2023-06-10T14:38:22;9.10;;;4.95;;
35839;SDS011;35514;50.504;30.500;2023-06-10T14:40:50;8.13;;;4.78;;
35839;SDS011;35514;50.504;30.500;2023-06-10T14:43:18;13.38;;;5.85;;
35839;SDS011;35514;50.504;30.500;2023-06-10T14:45:46;8.25;;;4.60;;